Time;durP1;ratioP1;P1;durP2;ratioP2;P2;SDS_P1;SDS_P2;PMS_P1;PMS_P2;Temp;Humidity;BMP_temperature;BMP_pressure;BME280_temperature;BME280_humidity;BME280_pressure;Samples;Min_cycle;Max_cycle;Signal;HPM_P1;HPM_P2
2023/12/03 00:01:05;;;;;;;0.50;0.50;;;;;;;-0.91;100.00;101775.00;5113350;28;20026;-46
2023/12/03 00:03:31;;;;;;;0.50;0.50;;;;;;;-0.95;100.00;101766.25;5112616;28;20035;-47
2023/12/03 00:05:56;;;;;;;0.45;0.45;;;;;;;-0.93;100.00;101757.16;5113610;28;20032;-46
2023/12/03 00:08:21;;;;;;;0.50;0.50;;;;;;;-0.88;100.00;101767.69;5113363;28;20387;-50
2023/12/03 00:10:47;;;;;;;0.50;0.50;;;;;;;-0.86;100.00;101764.53;5112597;28;20459;-45
2023/12/03 00:13:12;;;;;;;0.40;0.40;;;;;;;-0.85;100.00;101757.84;5113263;28;20024;-47
2023/12/03 00:15:37;;;;;;;0.40;0.40;;;;;;;-0.81;100.00;101769.13;5113270;28;20027;-47
2023/12/03 00:18:02;;;;;;;0.50;0.50;;;;;;;-0.80;100.00;101766.75;5112626;28;20035;-49
2023/12/03 00:20:28;;;;;;;0.57;0.57;;;;;;;-0.77;100.00;101761.06;5113221;28;20360;-47
2023/12/03 00:22:53;;;;;;;0.47;0.47;;;;;;;-0.76;100.00;101767.88;5113349;28;20024;-47
2023/12/03 00:25:18;;;;;;;0.50;0.50;;;;;;;-0.75;100.00;101765.53;5112287;28;20368;-46
2023/12/03 00:27:44;;;;;;;0.50;0.50;;;;;;;-0.71;100.00;101766.66;5113171;28;20494;-49
2023/12/03 00:30:10;;;;;;;0.50;0.50;;;;;;;-0.69;100.00;101766.03;5112992;28;20031;-45
2023/12/03 00:32:35;;;;;;;0.50;0.50;;;;;;;-0.66;100.00;101765.44;5112500;28;20019;-47
2023/12/03 00:35:00;;;;;;;0.50;0.50;;;;;;;-0.65;100.00;101776.47;5113207;28;20467;-46
2023/12/03 00:37:25;;;;;;;0.50;0.50;;;;;;;-0.64;100.00;101776.59;5112924;28;20076;-45
2023/12/03 00:39:51;;;;;;;0.50;0.50;;;;;;;-0.61;100.00;101779.38;5112398;28;20055;-46
2023/12/03 00:42:16;;;;;;;0.60;0.60;;;;;;;-0.60;100.00;101772.72;5112872;28;20024;-48
2023/12/03 00:44:41;;;;;;;0.50;0.50;;;;;;;-0.58;100.00;101769.56;5113065;28;20023;-49
2023/12/03 00:47:07;;;;;;;0.47;0.47;;;;;;;-0.56;100.00;101772.22;5112221;28;20450;-47
2023/12/03 00:49:32;;;;;;;0.50;0.50;;;;;;;-0.55;100.00;101772.34;5112920;28;20038;-47
2023/12/03 00:51:57;;;;;;;0.43;0.43;;;;;;;-0.52;100.00;101774.25;5113168;28;20505;-47
2023/12/03 00:54:22;;;;;;;0.50;0.50;;;;;;;-0.52;100.00;101779.31;5112052;28;20077;-46
2023/12/03 00:56:48;;;;;;;0.50;0.50;;;;;;;-0.51;100.00;101781.13;5112905;28;20019;-47
2023/12/03 00:59:13;;;;;;;0.50;0.50;;;;;;;-0.49;100.00;101782.16;5111761;28;20032;-45
2023/12/03 01:01:38;;;;;;;0.45;0.45;;;;;;;-0.47;100.00;101778.09;5112923;28;20092;-48
2023/12/03 01:04:03;;;;;;;0.50;0.50;;;;;;;-0.47;100.00;101775.56;5113071;28;20034;-47
2023/12/03 01:06:29;;;;;;;0.50;0.50;;;;;;;-0.45;100.00;101786.72;5112096;28;20024;-50
2023/12/03 01:08:54;;;;;;;0.45;0.45;;;;;;;-0.42;100.00;101784.47;5113017;28;20137;-47
2023/12/03 01:11:19;;;;;;;0.50;0.50;;;;;;;-0.43;100.00;101785.22;5114402;28;20020;-48
2023/12/03 01:13:45;;;;;;;0.50;0.50;;;;;;;-0.41;100.00;101783.72;5115955;28;20019;-47
2023/12/03 01:16:14;;;;;;;0.50;0.50;;;;;;;-0.38;100.00;101796.63;5116330;28;20360;-46
2023/12/03 01:18:40;;;;;;;0.50;0.50;;;;;;;-0.37;100.00;101795.88;5116685;28;20031;-48
2023/12/03 01:21:05;;;;;;;0.60;0.60;;;;;;;-0.36;100.00;101787.53;5115789;28;20084;-48
2023/12/03 01:23:31;;;;;;;0.50;0.50;;;;;;;-0.34;100.00;101797.81;5116295;28;20039;-47
2023/12/03 01:25:56;;;;;;;0.50;0.50;;;;;;;-0.31;100.00;101799.72;5116447;28;20085;-48
2023/12/03 01:28:22;;;;;;;0.50;0.50;;;;;;;-0.34;100.00;101796.19;5115309;28;20024;-49
2023/12/03 01:30:47;;;;;;;0.47;0.47;;;;;;;-0.32;100.00;101792.88;5116720;28;20044;-48
2023/12/03 01:33:12;;;;;;;0.50;0.50;;;;;;;-0.31;100.00;101792.13;5115980;28;20020;-46
2023/12/03 01:35:37;;;;;;;0.50;0.50;;;;;;;-0.34;100.00;101791.13;5115862;28;20027;-48
2023/12/03 01:38:03;;;;;;;0.50;0.50;;;;;;;-0.36;100.00;101791.72;5116449;28;20031;-46
2023/12/03 01:40:28;;;;;;;0.50;0.50;;;;;;;-0.40;100.00;101792.19;5116167;28;20467;-47
2023/12/03 01:42:54;;;;;;;0.50;0.50;;;;;;;-0.45;100.00;101791.78;5115369;28;20019;-46
2023/12/03 01:45:19;;;;;;;0.50;0.50;;;;;;;-0.47;100.00;101800.88;5115829;28;20479;-48
2023/12/03 01:47:44;;;;;;;0.50;0.50;;;;;;;-0.54;100.00;101796.03;5116229;28;20028;-48
2023/12/03 01:50:12;;;;;;;0.43;0.43;;;;;;;-0.57;100.00;101790.69;5115215;28;20023;-47
2023/12/03 01:52:38;;;;;;;0.40;0.40;;;;;;;-0.63;100.00;101801.16;5116015;28;20382;-51
2023/12/03 01:55:05;;;;;;;0.50;0.50;;;;;;;-0.71;100.00;101792.88;5116153;28;20019;-48
2023/12/03 01:57:30;;;;;;;0.50;0.50;;;;;;;-0.78;100.00;101809.91;5114688;28;20072;-47
2023/12/03 01:59:56;;;;;;;0.50;0.50;;;;;;;-0.85;100.00;101799.22;5115925;28;20414;-48
2023/12/03 02:02:21;;;;;;;0.50;0.50;;;;;;;-0.82;100.00;101801.13;5115372;28;20348;-49
2023/12/03 02:04:47;;;;;;;0.47;0.47;;;;;;;-0.80;100.00;101806.34;5115551;28;20022;-47
2023/12/03 02:07:13;;;;;;;0.45;0.45;;;;;;;-0.84;100.00;101808.59;5115713;28;20378;-51
2023/12/03 02:09:39;;;;;;;0.40;0.40;;;;;;;-0.80;100.00;101812.31;5114914;28;20467;-50
2023/12/03 02:12:05;;;;;;;0.50;0.50;;;;;;;-0.84;100.00;101811.13;5115417;28;20024;-44
2023/12/03 02:14:30;;;;;;;0.47;0.47;;;;;;;-0.81;100.00;101810.53;5115377;28;20106;-51
2023/12/03 02:16:55;;;;;;;0.50;0.50;;;;;;;-0.82;100.00;101807.84;5114993;28;20110;-51
2023/12/03 02:19:21;;;;;;;0.50;0.50;;;;;;;-0.82;100.00;101816.31;5115292;28;20081;-48
2023/12/03 02:21:46;;;;;;;0.60;0.60;;;;;;;-0.86;100.00;101811.75;5115097;28;20363;-51
2023/12/03 02:24:11;;;;;;;0.50;0.50;;;;;;;-0.87;100.00;101812.50;5113771;28;20032;-46
2023/12/03 02:26:37;;;;;;;0.50;0.50;;;;;;;-0.85;100.00;101819.47;5115393;28;20051;-46
2023/12/03 02:29:02;;;;;;;0.50;0.50;;;;;;;-0.82;100.00;101828.97;5115300;28;20024;-48
2023/12/03 02:31:29;;;;;;;0.60;0.60;;;;;;;-0.81;100.00;101825.72;5114383;28;20375;-46
2023/12/03 02:34:13;;;;;;;0.57;0.57;;;;;;;-0.76;100.00;101832.06;5115335;28;20070;-47
2023/12/03 02:36:39;;;;;;;0.55;0.55;;;;;;;-0.76;100.00;101828.63;5115191;28;20034;-48
2023/12/03 02:39:05;;;;;;;0.40;0.40;;;;;;;-0.72;100.00;101824.00;5114234;28;20110;-47
2023/12/03 02:41:30;;;;;;;0.43;0.43;;;;;;;-0.72;100.00;101821.47;5114668;28;20057;-46
2023/12/03 02:43:56;;;;;;;0.50;0.50;;;;;;;-0.70;100.00;101817.44;5115435;28;20028;-46
2023/12/03 02:46:21;;;;;;;0.40;0.40;;;;;;;-0.71;100.00;101814.75;5113715;28;20047;-45
2023/12/03 02:48:46;;;;;;;0.50;0.50;;;;;;;-0.74;100.00;101822.97;5114973;28;20026;-50
2023/12/03 02:51:12;;;;;;;0.50;0.50;;;;;;;-0.79;100.00;101813.19;5114671;28;20016;-46
2023/12/03 02:53:38;;;;;;;0.60;0.60;;;;;;;-0.81;100.00;101814.66;5114157;28;20357;-45
2023/12/03 02:56:04;;;;;;;0.43;0.43;;;;;;;-0.90;100.00;101819.81;5114717;28;20051;-49
2023/12/03 02:58:29;;;;;;;0.50;0.50;;;;;;;-0.94;100.00;101815.19;5114153;28;20437;-46
2023/12/03 03:00:55;;;;;;;0.50;0.50;;;;;;;-0.93;100.00;101825.47;5114026;28;20020;-45
2023/12/03 03:03:20;;;;;;;0.40;0.40;;;;;;;-0.90;100.00;101824.88;5114604;28;20030;-46
2023/12/03 03:05:45;;;;;;;0.50;0.50;;;;;;;-0.86;100.00;101824.41;5113893;28;20024;-47
2023/12/03 03:08:11;;;;;;;0.50;0.50;;;;;;;-0.80;100.00;101821.53;5114362;28;20421;-51
2023/12/03 03:10:36;;;;;;;0.60;0.60;;;;;;;-0.77;100.00;101811.69;5114591;28;20083;-51
2023/12/03 03:13:01;;;;;;;0.50;0.50;;;;;;;-0.73;100.00;101823.88;5113901;28;20538;-51
2023/12/03 03:15:27;;;;;;;0.60;0.60;;;;;;;-0.72;100.00;101816.41;5114279;28;20023;-49
2023/12/03 03:17:52;;;;;;;0.50;0.50;;;;;;;-0.71;100.00;101818.19;5114463;28;20439;-51
2023/12/03 03:20:21;;;;;;;0.50;0.50;;;;;;;-0.72;100.00;101816.41;5113294;28;20028;-50
2023/12/03 03:22:47;;;;;;;0.50;0.50;;;;;;;-0.75;100.00;101817.78;5114176;28;20103;-49
2023/12/03 03:25:12;;;;;;;0.50;0.50;;;;;;;-0.76;100.00;101813.44;5113859;28;20024;-50
2023/12/03 03:27:38;;;;;;;0.60;0.60;;;;;;;-0.85;100.00;101809.34;5113449;28;20039;-52
2023/12/03 03:30:06;;;;;;;0.50;0.50;;;;;;;-0.87;100.00;101815.03;5114359;28;20072;-50
2023/12/03 03:32:31;;;;;;;0.60;0.60;;;;;;;-0.91;100.00;101812.97;5113870;28;20027;-51
2023/12/03 03:34:57;;;;;;;0.50;0.50;;;;;;;-0.95;100.00;101814.31;5112953;28;20360;-50
2023/12/03 03:37:22;;;;;;;0.60;0.60;;;;;;;-1.01;100.00;101807.06;5113493;28;20416;-47
2023/12/03 03:39:47;;;;;;;0.50;0.50;;;;;;;-1.05;100.00;101817.63;5113782;28;20020;-50
2023/12/03 03:42:12;;;;;;;0.50;0.50;;;;;;;-1.07;100.00;101823.31;5113007;28;20023;-48
2023/12/03 03:44:38;;;;;;;0.50;0.50;;;;;;;-1.12;100.00;101817.84;5114064;28;20020;-51
2023/12/03 03:47:03;;;;;;;0.50;0.50;;;;;;;-1.18;100.00;101823.19;5113601;28;20040;-50
2023/12/03 03:49:29;;;;;;;0.50;0.50;;;;;;;-1.19;100.00;101818.00;5112787;28;20066;-49
2023/12/03 03:51:55;;;;;;;0.47;0.47;;;;;;;-1.24;100.00;101817.59;5113688;28;20421;-46
2023/12/03 03:54:20;;;;;;;0.50;0.50;;;;;;;-1.27;100.00;101818.94;5113247;28;20123;-48
2023/12/03 03:56:48;;;;;;;0.50;0.50;;;;;;;-1.31;100.00;101834.59;5113047;28;20019;-48
2023/12/03 03:59:13;;;;;;;0.50;0.50;;;;;;;-1.38;100.00;101828.94;5113322;28;20024;-51
2023/12/03 04:01:43;;;;;;;0.60;0.60;;;;;;;-1.39;100.00;101833.88;5113559;28;20016;-47
2023/12/03 04:04:09;;;;;;;0.50;0.50;;;;;;;-1.43;100.00;101830.16;5112720;28;20024;-48
2023/12/03 04:06:42;;;;;;;0.60;0.60;;;;;;;-1.46;100.00;101839.97;5113306;28;20026;-47
2023/12/03 04:09:08;;;;;;;0.50;0.50;;;;;;;-1.50;100.00;101840.44;5112630;28;20148;-45
2023/12/03 04:11:40;;;;;;;0.50;0.50;;;;;;;-1.53;100.00;101832.56;5112986;28;20463;-49
2023/12/03 04:14:07;;;;;;;0.52;0.52;;;;;;;-1.57;100.00;101833.03;5113483;28;20031;-45
2023/12/03 04:16:33;;;;;;;0.50;0.50;;;;;;;-1.59;100.00;101832.00;5112317;28;20103;-50
2023/12/03 04:18:59;;;;;;;0.50;0.50;;;;;;;-1.61;100.00;101833.47;5113334;28;20026;-47
2023/12/03 04:21:24;;;;;;;0.57;0.57;;;;;;;-1.63;100.00;101834.97;5113169;28;20027;-46
2023/12/03 04:23:49;;;;;;;0.60;0.60;;;;;;;-1.68;100.00;101832.00;5112818;28;20535;-50
2023/12/03 04:26:15;;;;;;;0.50;0.50;;;;;;;-1.71;100.00;101837.66;5112927;28;20043;-50
2023/12/03 04:28:41;;;;;;;0.50;0.50;;;;;;;-1.72;100.00;101845.09;5113429;28;20518;-47
2023/12/03 04:31:16;;;;;;;0.50;0.50;;;;;;;-1.74;100.00;101850.00;5112690;28;20050;-45
2023/12/03 04:33:42;;;;;;;0.52;0.52;;;;;;;-1.80;100.00;101846.91;5113101;28;20031;-47
2023/12/03 04:36:07;;;;;;;0.60;0.60;;;;;;;-1.78;100.00;101845.44;5113335;28;20020;-46
2023/12/03 04:38:32;;;;;;;0.50;0.50;;;;;;;-1.79;100.00;101845.28;5112097;28;20031;-48
2023/12/03 04:40:58;;;;;;;0.50;0.50;;;;;;;-1.78;100.00;101847.94;5113225;28;20397;-47
2023/12/03 04:43:23;;;;;;;0.60;0.60;;;;;;;-1.83;100.00;101851.69;5113018;28;20027;-46
2023/12/03 04:45:48;;;;;;;0.60;0.60;;;;;;;-1.82;100.00;101849.28;5113185;28;20104;-51
2023/12/03 04:48:13;;;;;;;0.50;0.50;;;;;;;-1.86;100.00;101851.38;5117090;28;20034;-46
2023/12/03 04:50:39;;;;;;;0.50;0.50;;;;;;;-1.94;100.00;101857.34;5117372;28;20112;-50
2023/12/03 04:53:04;;;;;;;0.50;0.50;;;;;;;-1.93;100.00;101854.94;5116683;28;20023;-51
2023/12/03 04:55:30;;;;;;;0.60;0.60;;;;;;;-1.95;100.00;101850.50;5117006;28;20387;-51
2023/12/03 04:57:55;;;;;;;0.60;0.60;;;;;;;-1.97;100.00;101852.88;5117065;28;20031;-50
2023/12/03 05:00:20;;;;;;;0.50;0.50;;;;;;;-1.96;100.00;101856.28;5116210;28;20027;-49
2023/12/03 05:02:45;;;;;;;0.60;0.60;;;;;;;-2.04;100.00;101851.41;5116872;28;20089;-50
2023/12/03 05:05:11;;;;;;;0.50;0.50;;;;;;;-2.04;100.00;101858.97;5116586;28;20035;-49
2023/12/03 05:07:36;;;;;;;0.60;0.60;;;;;;;-2.10;100.00;101860.91;5116264;28;20027;-51
2023/12/03 05:10:01;;;;;;;0.57;0.57;;;;;;;-2.09;100.00;101860.16;5117009;28;20032;-50
2023/12/03 05:12:27;;;;;;;0.55;0.55;;;;;;;-2.11;100.00;101865.81;5115882;28;20016;-49
2023/12/03 05:14:52;;;;;;;0.50;0.50;;;;;;;-2.15;100.00;101862.97;5116768;28;20024;-50
2023/12/03 05:17:17;;;;;;;0.57;0.57;;;;;;;-2.18;100.00;101866.84;5116285;28;20024;-51
2023/12/03 05:19:43;;;;;;;0.50;0.50;;;;;;;-2.11;100.00;101871.75;5115916;28;20024;-49
2023/12/03 05:22:09;;;;;;;0.57;0.57;;;;;;;-2.16;100.00;101873.84;5116848;28;20467;-48
2023/12/03 05:24:34;;;;;;;0.60;0.60;;;;;;;-2.22;100.00;101874.84;5116790;28;20120;-50
2023/12/03 05:26:59;;;;;;;0.60;0.60;;;;;;;-2.23;100.00;101873.09;5115704;28;20019;-50
2023/12/03 05:29:25;;;;;;;0.50;0.50;;;;;;;-2.24;100.00;101871.31;5116214;28;20036;-51
2023/12/03 05:31:50;;;;;;;0.50;0.50;;;;;;;-2.29;100.00;101867.44;5116400;28;20028;-51
2023/12/03 05:34:15;;;;;;;0.60;0.60;;;;;;;-2.34;100.00;101867.88;5115179;28;20040;-46
2023/12/03 05:36:41;;;;;;;0.60;0.60;;;;;;;-2.35;100.00;101870.22;5116224;28;20098;-45
2023/12/03 05:39:06;;;;;;;0.60;0.60;;;;;;;-2.35;100.00;101873.69;5116473;28;20024;-49
2023/12/03 05:41:37;;;;;;;0.60;0.60;;;;;;;-2.37;100.00;101877.66;5115185;28;20035;-47
2023/12/03 05:44:03;;;;;;;0.60;0.60;;;;;;;-2.40;100.00;101874.84;5116368;28;20023;-50
2023/12/03 05:46:29;;;;;;;0.50;0.50;;;;;;;-2.39;100.00;101875.72;5115593;28;20974;-45
2023/12/03 05:48:54;;;;;;;0.60;0.60;;;;;;;-2.45;100.00;101876.03;5115324;28;20020;-48
2023/12/03 05:51:19;;;;;;;0.60;0.60;;;;;;;-2.46;100.00;101879.28;5116017;28;20030;-50
2023/12/03 05:53:44;;;;;;;0.50;0.50;;;;;;;-2.46;100.00;101879.28;5116194;28;20035;-51
2023/12/03 05:56:10;;;;;;;0.60;0.60;;;;;;;-2.52;100.00;101873.63;5114834;28;20024;-45
2023/12/03 05:58:35;;;;;;;0.60;0.60;;;;;;;-2.51;100.00;101880.47;5115694;28;20379;-45
2023/12/03 06:01:01;;;;;;;0.60;0.60;;;;;;;-2.57;100.00;101883.28;5115990;28;20027;-48
2023/12/03 06:03:26;;;;;;;0.50;0.50;;;;;;;-2.58;100.00;101884.03;5114750;28;20015;-46
2023/12/03 06:05:51;;;;;;;0.55;0.55;;;;;;;-2.60;100.00;101888.03;5116031;28;20024;-45
2023/12/03 06:08:16;;;;;;;0.60;0.60;;;;;;;-2.59;100.00;101881.38;5115586;28;20023;-45
2023/12/03 06:10:42;;;;;;;0.60;0.60;;;;;;;-2.60;100.00;101889.66;5115109;28;20471;-46
2023/12/03 06:13:09;;;;;;;0.60;0.60;;;;;;;-2.64;100.00;101888.47;5115876;28;20024;-45
2023/12/03 06:15:34;;;;;;;0.60;0.60;;;;;;;-2.64;100.00;101890.97;5115163;28;20047;-47
2023/12/03 06:18:00;;;;;;;0.68;0.68;;;;;;;-2.70;100.00;101891.28;5115216;28;20470;-46
2023/12/03 06:20:25;;;;;;;0.60;0.60;;;;;;;-2.68;100.00;101894.84;5115434;28;20055;-47
2023/12/03 06:22:51;;;;;;;0.60;0.60;;;;;;;-2.70;100.00;101897.94;5114702;28;20409;-45
2023/12/03 06:25:16;;;;;;;0.50;0.50;;;;;;;-2.72;100.00;101905.38;5115170;28;20015;-47
2023/12/03 06:27:42;;;;;;;0.60;0.60;;;;;;;-2.72;100.00;101905.38;5115491;28;20055;-47
2023/12/03 06:30:08;;;;;;;0.50;0.50;;;;;;;-2.73;100.00;101908.63;5114714;28;20035;-50
2023/12/03 06:32:33;;;;;;;0.60;0.60;;;;;;;-2.77;100.00;101913.22;5114941;28;20051;-51
2023/12/03 06:34:58;;;;;;;0.60;0.60;;;;;;;-2.73;100.00;101913.66;5115453;28;20477;-50
2023/12/03 06:37:23;;;;;;;0.60;0.60;;;;;;;-2.73;100.00;101913.66;5114101;28;20023;-48
2023/12/03 06:39:49;;;;;;;0.60;0.60;;;;;;;-2.70;100.00;101901.38;5115298;28;20027;-47
2023/12/03 06:42:14;;;;;;;0.60;0.60;;;;;;;-2.69;100.00;101905.66;5114859;28;20057;-52
2023/12/03 06:44:39;;;;;;;0.57;0.57;;;;;;;-2.68;100.00;101897.34;5114300;28;20031;-48
2023/12/03 06:47:05;;;;;;;0.60;0.60;;;;;;;-2.66;100.00;101897.50;5114735;28;20043;-51
2023/12/03 06:49:31;;;;;;;0.60;0.60;;;;;;;-2.67;100.00;101898.25;5114851;28;20487;-49
2023/12/03 06:51:56;;;;;;;0.60;0.60;;;;;;;-2.70;100.00;101888.75;5114185;28;20028;-50
2023/12/03 06:54:21;;;;;;;0.60;0.60;;;;;;;-2.73;100.00;101893.47;5114621;28;20027;-51
2023/12/03 06:56:46;;;;;;;0.60;0.60;;;;;;;-2.73;100.00;101892.59;5114877;28;20031;-49
2023/12/03 06:59:12;;;;;;;0.60;0.60;;;;;;;-2.74;100.00;101901.78;5113623;28;20054;-49
2023/12/03 07:01:37;;;;;;;0.52;0.52;;;;;;;-2.76;100.00;101888.13;5114584;28;20490;-49
2023/12/03 07:04:02;;;;;;;0.50;0.50;;;;;;;-2.78;100.00;101899.69;5114574;28;20073;-49
2023/12/03 07:06:28;;;;;;;0.60;0.60;;;;;;;-2.76;100.00;101902.38;5113635;28;20024;-50
2023/12/03 07:08:53;;;;;;;0.70;0.70;;;;;;;-2.74;100.00;101894.22;5114000;28;20053;-48
2023/12/03 07:11:19;;;;;;;0.60;0.60;;;;;;;-2.72;100.00;101897.78;5114143;28;20073;-50
2023/12/03 07:13:44;;;;;;;0.60;0.60;;;;;;;-2.77;100.00;101891.41;5113863;28;20063;-45
2023/12/03 07:16:10;;;;;;;0.70;0.70;;;;;;;-2.75;100.00;101894.06;5114142;28;20027;-47
2023/12/03 07:18:35;;;;;;;0.60;0.60;;;;;;;-2.72;100.00;101890.22;5114460;28;20084;-44
2023/12/03 07:21:01;;;;;;;0.60;0.60;;;;;;;-2.72;100.00;101890.22;5113800;28;20026;-45
2023/12/03 07:23:26;;;;;;;0.60;0.60;;;;;;;-2.75;100.00;101900.03;5114057;28;20031;-45
2023/12/03 07:25:51;;;;;;;0.60;0.60;;;;;;;-2.77;100.00;101906.53;5114231;28;20031;-45
2023/12/03 07:28:16;;;;;;;0.60;0.60;;;;;;;-2.78;100.00;101903.88;5105591;28;20078;-47
2023/12/03 07:30:42;;;;;;;0.60;0.60;;;;;;;-2.79;100.00;101908.00;5093909;28;20056;-46
2023/12/03 07:33:07;;;;;;;0.50;0.50;;;;;;;-2.82;100.00;101907.69;5092704;28;20024;-46
2023/12/03 07:35:32;;;;;;;0.60;0.60;;;;;;;-2.82;100.00;101911.09;5093476;28;20036;-46
2023/12/03 07:37:59;;;;;;;0.60;0.60;;;;;;;-2.82;100.00;101908.59;5093676;28;20024;-45
2023/12/03 07:40:25;;;;;;;0.60;0.60;;;;;;;-2.80;100.00;101911.28;5092498;28;20050;-46
2023/12/03 07:42:50;;;;;;;0.70;0.70;;;;;;;-2.80;100.00;101916.34;5093531;28;20036;-47
2023/12/03 07:45:15;;;;;;;0.70;0.70;;;;;;;-2.80;100.00;101913.81;5092862;28;20514;-46
2023/12/03 07:47:41;;;;;;;0.60;0.60;;;;;;;-2.81;100.00;101917.06;5092684;28;20036;-45
2023/12/03 07:50:06;;;;;;;0.50;0.50;;;;;;;-2.77;100.00;101921.66;5093359;28;20016;-48
2023/12/03 07:52:32;;;;;;;0.60;0.60;;;;;;;-2.78;100.00;101914.84;5092922;28;20092;-48
2023/12/03 07:54:57;;;;;;;0.60;0.60;;;;;;;-2.75;100.00;101910.13;5092461;28;20041;-45
2023/12/03 07:57:22;;;;;;;0.60;0.60;;;;;;;-2.74;100.00;101913.53;5092959;28;20099;-48
2023/12/03 07:59:48;;;;;;;0.60;0.60;;;;;;;-2.71;100.00;101908.75;5093397;28;20029;-46
2023/12/03 08:02:13;;;;;;;0.50;0.50;;;;;;;-2.67;100.00;101916.81;5092159;28;20384;-45
2023/12/03 08:04:38;;;;;;;0.60;0.60;;;;;;;-2.68;100.00;101921.72;5093090;28;20020;-50
2023/12/03 08:07:04;;;;;;;0.60;0.60;;;;;;;-2.65;100.00;101916.97;5093411;28;20077;-47
2023/12/03 08:09:29;;;;;;;0.60;0.60;;;;;;;-2.63;100.00;101920.53;5092240;28;20028;-45
2023/12/03 08:11:54;;;;;;;0.65;0.65;;;;;;;-2.61;100.00;101924.09;5093128;28;20052;-48
2023/12/03 08:14:20;;;;;;;0.60;0.60;;;;;;;-2.62;100.00;101917.28;5092703;28;20020;-50
2023/12/03 08:16:45;;;;;;;0.50;0.50;;;;;;;-2.57;100.00;101926.19;5092199;28;20028;-50
2023/12/03 08:19:10;;;;;;;0.60;0.60;;;;;;;-2.58;100.00;101926.94;5092528;28;20038;-49
2023/12/03 08:21:36;;;;;;;0.68;0.68;;;;;;;-2.54;100.00;101933.19;5093072;28;20036;-50
2023/12/03 08:24:02;;;;;;;0.60;0.60;;;;;;;-2.50;100.00;101942.84;5092320;28;20094;-49
2023/12/03 08:26:27;;;;;;;0.60;0.60;;;;;;;-2.40;100.00;101942.09;5092671;28;20020;-50
2023/12/03 08:28:52;;;;;;;0.50;0.50;;;;;;;-2.37;100.00;101940.78;5092777;28;20424;-49
2023/12/03 08:31:18;;;;;;;0.60;0.60;;;;;;;-2.30;100.00;101934.72;5091726;28;20464;-50
2023/12/03 08:33:44;;;;;;;0.60;0.60;;;;;;;-2.24;100.00;101942.00;5093016;28;20028;-49
2023/12/03 08:36:16;;;;;;;0.50;0.50;;;;;;;-2.18;100.00;101945.16;5092698;28;20081;-46
2023/12/03 08:38:42;;;;;;;0.50;0.50;;;;;;;-2.17;100.00;101939.34;5092876;28;20032;-50
2023/12/03 08:41:07;;;;;;;0.50;0.50;;;;;;;-2.16;100.00;101943.66;5092741;28;20028;-49
2023/12/03 08:43:32;;;;;;;0.60;0.60;;;;;;;-2.13;100.00;101941.44;5091549;28;20036;-49
2023/12/03 08:45:58;;;;;;;0.50;0.50;;;;;;;-2.11;100.00;101952.56;5092486;28;20054;-48
2023/12/03 08:48:23;;;;;;;0.50;0.50;;;;;;;-2.08;100.00;101952.91;5092313;28;20040;-50
2023/12/03 08:50:49;;;;;;;0.50;0.50;;;;;;;-2.05;100.00;101949.78;5091978;28;20016;-48
2023/12/03 08:53:15;;;;;;;0.50;0.50;;;;;;;-2.01;100.00;101955.25;5092229;28;20483;-46
2023/12/03 08:55:41;;;;;;;0.60;0.60;;;;;;;-1.97;100.00;101960.63;5092635;28;20115;-44
2023/12/03 08:58:06;;;;;;;0.60;0.60;;;;;;;-1.87;100.00;101960.78;5091895;28;20059;-47
2023/12/03 09:00:31;;;;;;;0.50;0.50;;;;;;;-1.85;100.00;101956.75;5092134;28;20099;-45
2023/12/03 09:02:56;;;;;;;0.60;0.60;;;;;;;-1.78;100.00;101955.72;5092777;28;20055;-46
2023/12/03 09:05:22;;;;;;;0.50;0.50;;;;;;;-1.72;100.00;101959.72;5091629;28;20024;-46
2023/12/03 09:07:47;;;;;;;0.45;0.45;;;;;;;-1.67;100.00;101968.63;5092927;28;20380;-48
2023/12/03 09:10:13;;;;;;;0.55;0.55;;;;;;;-1.63;100.00;101962.25;5092244;28;20099;-45
2023/12/03 09:12:39;;;;;;;0.60;0.60;;;;;;;-1.61;100.00;101967.44;5091738;28;20063;-46
2023/12/03 09:15:04;;;;;;;0.50;0.50;;;;;;;-1.61;100.00;101964.91;5092328;28;20035;-46
2023/12/03 09:17:31;;;;;;;0.60;0.60;;;;;;;-1.60;100.00;101964.19;5092399;28;20032;-46
2023/12/03 09:19:57;;;;;;;0.50;0.50;;;;;;;-1.57;100.00;101967.03;5091570;28;20472;-48
2023/12/03 09:22:22;;;;;;;0.50;0.50;;;;;;;-1.57;100.00;101967.03;5092130;28;20066;-45
2023/12/03 09:24:48;;;;;;;0.50;0.50;;;;;;;-1.57;100.00;101972.06;5092436;28;20027;-45
2023/12/03 09:27:13;;;;;;;0.50;0.50;;;;;;;-1.56;100.00;101971.31;5091222;28;20081;-45
2023/12/03 09:29:39;;;;;;;0.50;0.50;;;;;;;-1.55;100.00;101970.56;5092081;28;20060;-45
2023/12/03 09:32:04;;;;;;;0.60;0.60;;;;;;;-1.53;100.00;101974.16;5093803;28;20024;-45
2023/12/03 09:34:30;;;;;;;0.52;0.52;;;;;;;-1.51;100.00;101972.66;5094737;28;20032;-46
2023/12/03 09:36:56;;;;;;;0.52;0.52;;;;;;;-1.49;100.00;101964.47;5096165;28;20024;-46
2023/12/03 09:39:21;;;;;;;0.50;0.50;;;;;;;-1.44;100.00;101959.84;5095506;28;20035;-46
2023/12/03 09:41:51;;;;;;;0.50;0.50;;;;;;;-1.41;100.00;101965.19;5094885;28;20024;-51
2023/12/03 09:44:31;;;;;;;0.50;0.50;;;;;;;-1.33;100.00;101965.94;5095327;28;20020;-45
2023/12/03 09:46:59;;;;;;;0.40;0.40;;;;;;;-1.29;100.00;101962.97;5094419;28;20404;-46
2023/12/03 09:49:24;;;;;;;;;;;;;;;-1.16;100.00;101963.38;5095697;28;20491;-45
2023/12/03 09:51:51;;;;;;;0.60;0.60;;;;;;;-1.18;100.00;101958.91;5095779;28;19970;-50
2023/12/03 09:54:18;;;;;;;0.50;0.50;;;;;;;-1.12;100.00;101954.44;5094719;28;20095;-49
2023/12/03 09:56:46;;;;;;;0.50;0.50;;;;;;;-1.04;100.00;101957.69;5095538;28;20031;-50
2023/12/03 09:59:14;;;;;;;0.57;0.57;;;;;;;-0.96;100.00;101951.72;5095132;28;20777;-51
2023/12/03 10:01:40;;;;;;;0.60;0.60;;;;;;;-0.91;100.00;101954.69;5095165;28;20035;-48
2023/12/03 10:04:06;;;;;;;0.52;0.52;;;;;;;-0.88;100.00;101950.81;5095625;28;20099;-45
2023/12/03 10:06:39;;;;;;;0.50;0.50;;;;;;;-0.81;100.00;101959.84;5095224;28;20111;-50
2023/12/03 10:09:06;;;;;;;0.47;0.47;;;;;;;-0.80;100.00;101951.53;5094541;28;20024;-46
2023/12/03 10:11:39;;;;;;;0.50;0.50;;;;;;;-0.77;100.00;101946.72;5094903;28;20024;-51
2023/12/03 10:14:10;;;;;;;0.60;0.60;;;;;;;-0.76;100.00;101951.06;5095490;28;20081;-49
2023/12/03 10:16:36;;;;;;;0.50;0.50;;;;;;;-0.71;100.00;101948.94;5094584;28;20043;-45
2023/12/03 10:19:02;;;;;;;0.47;0.47;;;;;;;-0.68;100.00;101945.03;5095113;28;20027;-50
2023/12/03 10:21:27;;;;;;;0.50;0.50;;;;;;;-0.65;100.00;101944.44;5094714;28;20032;-48
2023/12/03 10:24:03;;;;;;;0.50;0.50;;;;;;;-0.60;100.00;101944.88;5094197;28;20024;-50
2023/12/03 10:26:28;;;;;;;0.40;0.40;;;;;;;-0.57;100.00;101937.56;5094842;28;20044;-50
2023/12/03 10:28:54;;;;;;;0.60;0.60;;;;;;;-0.54;100.00;101932.78;5094310;28;20097;-45
2023/12/03 10:31:19;;;;;;;0.50;0.50;;;;;;;-0.52;100.00;101936.34;5094625;28;20015;-45
2023/12/03 10:33:45;;;;;;;0.50;0.50;;;;;;;-0.50;100.00;101930.66;5094886;28;20122;-45
2023/12/03 10:36:11;;;;;;;0.50;0.50;;;;;;;-0.44;100.00;101931.97;5093843;28;20020;-46
2023/12/03 10:38:41;;;;;;;0.50;0.50;;;;;;;-0.44;100.00;101925.28;5094564;28;20036;-44
2023/12/03 10:41:08;;;;;;;0.60;0.60;;;;;;;-0.39;100.00;101920.63;5094996;28;20035;-47
2023/12/03 10:43:35;;;;;;;0.50;0.50;;;;;;;-0.38;100.00;101914.81;5092482;28;20379;-46
2023/12/03 10:46:04;;;;;;;0.50;0.50;;;;;;;-0.35;100.00;101921.03;5094439;28;20522;-47
2023/12/03 10:48:31;;;;;;;0.60;0.60;;;;;;;-0.26;100.00;101915.03;5094308;28;20028;-47
2023/12/03 10:51:03;;;;;;;0.60;0.60;;;;;;;-0.24;100.00;101911.00;5093740;28;20026;-48
2023/12/03 10:53:32;;;;;;;0.60;0.60;;;;;;;-0.20;100.00;101911.38;5094124;28;20468;-49
2023/12/03 10:55:57;;;;;;;0.50;0.50;;;;;;;-0.16;100.00;101907.50;5094511;28;20017;-50
2023/12/03 10:58:25;;;;;;;0.55;0.55;;;;;;;-0.10;100.00;101897.91;5093298;28;20043;-45
2023/12/03 11:01:00;;;;;;;0.50;0.50;;;;;;;-0.04;100.00;101903.53;5094458;28;20016;-47
2023/12/03 11:03:43;;;;;;;0.50;0.50;;;;;;;0.04;100.00;101905.84;5094012;28;20081;-49
2023/12/03 11:06:10;;;;;;;0.50;0.50;;;;;;;0.13;100.00;101901.59;5093512;28;20024;-48
2023/12/03 11:08:36;;;;;;;0.50;0.50;;;;;;;0.18;100.00;101897.81;5094331;28;20028;-50
2023/12/03 11:11:01;;;;;;;0.40;0.40;;;;;;;0.30;100.00;101893.84;5093319;28;20026;-50